Time;durP1;ratioP1;P1;durP2;ratioP2;P2;SDS_P1;SDS_P2;PMS_P1;PMS_P2;Temp;Humidity;BMP_temperature;BMP_pressure;BME280_temperature;BME280_humidity;BME280_pressure;Samples;Min_cycle;Max_cycle;Signal;HPM_P1;HPM_P2
2020/12/04 14:22:27;;;;;;;120.85;44.58;;;1.20;99.90;;;;;;5225552;22;20075;-89
2020/12/04 14:24:52;;;;;;;117.00;45.70;;;1.10;99.90;;;;;;5040844;28;20108;-81
2020/12/04 14:27:18;;;;;;;116.65;43.20;;;1.10;99.90;;;;;;5035102;28;20024;-79
2020/12/04 14:29:44;;;;;;;113.15;43.75;;;1.20;99.90;;;;;;5013401;28;20048;-80
2020/12/04 14:32:10;;;;;;;110.43;43.97;;;1.20;99.90;;;;;;5030968;28;20071;-78
2020/12/04 14:34:35;;;;;;;123.28;48.75;;;1.20;99.90;;;;;;5030742;28;20037;-78
2020/12/04 14:37:01;;;;;;;129.52;45.08;;;1.20;99.90;;;;;;5031261;28;20029;-79
2020/12/04 14:39:27;;;;;;;132.30;49.25;;;1.20;99.90;;;;;;5032471;28;20096;-81
2020/12/04 14:41:54;;;;;;;141.13;49.47;;;1.20;99.90;;;;;;5034958;28;20145;-79
2020/12/04 14:44:20;;;;;;;133.18;48.00;;;1.20;99.90;;;;;;5030756;28;20123;-79
2020/12/04 14:46:46;;;;;;;129.55;45.22;;;1.20;99.90;;;;;;5029813;28;20026;-79
2020/12/04 14:49:13;;;;;;;132.20;49.28;;;1.20;99.90;;;;;;5030388;28;20068;-78
2020/12/04 14:51:38;;;;;;;113.55;39.85;;;1.20;99.90;;;;;;5030728;28;20121;-79
2020/12/04 14:54:04;;;;;;;129.02;45.20;;;1.10;99.90;;;;;;5031890;28;20033;-78
2020/12/04 14:56:30;;;;;;;129.93;45.08;;;1.10;99.90;;;;;;5031390;28;20120;-79
2020/12/04 14:58:56;;;;;;;139.07;47.58;;;1.00;99.90;;;;;;5030201;28;20506;-78
2020/12/04 15:01:22;;;;;;;140.40;48.45;;;1.00;99.90;;;;;;5011912;28;20062;-79
2020/12/04 15:03:49;;;;;;;136.18;47.42;;;0.90;99.90;;;;;;5033431;28;20072;-78
2020/12/04 15:06:15;;;;;;;133.13;46.17;;;0.90;99.90;;;;;;5017015;28;20109;-78
2020/12/04 15:08:41;;;;;;;132.98;44.38;;;0.80;99.90;;;;;;5034791;28;20017;-78
2020/12/04 15:11:08;;;;;;;137.68;47.28;;;0.80;99.90;;;;;;5034960;28;20025;-77
2020/12/04 15:13:34;;;;;;;131.57;48.15;;;0.80;99.90;;;;;;5023982;28;20080;-78
2020/12/04 15:16:00;;;;;;;134.05;46.65;;;0.80;99.90;;;;;;5035773;28;20059;-76
2020/12/04 15:18:28;;;;;;;155.43;51.35;;;0.80;99.90;;;;;;5054299;28;20103;-78
2020/12/04 15:20:57;;;;;;;176.02;58.17;;;0.70;99.90;;;;;;5053387;28;20021;-78
2020/12/04 15:23:24;;;;;;;112.85;42.13;;;0.70;99.90;;;;;;5053426;28;20506;-78
2020/12/04 15:25:50;;;;;;;139.05;50.85;;;0.70;99.90;;;;;;5054809;28;20363;-77
2020/12/04 15:28:17;;;;;;;136.05;47.70;;;0.70;99.90;;;;;;5055520;28;20013;-77
2020/12/04 15:30:42;;;;;;;117.05;41.67;;;0.70;99.90;;;;;;5054292;28;20035;-77
2020/12/04 15:33:08;;;;;;;112.53;42.92;;;0.60;99.90;;;;;;5053971;28;20028;-76
2020/12/04 15:35:34;;;;;;;100.07;37.40;;;0.60;99.90;;;;;;5036058;28;20492;-78
2020/12/04 15:38:15;;;;;;;109.70;39.90;;;0.70;99.90;;;;;;5054580;28;20025;-79
2020/12/04 15:40:41;;;;;;;110.45;42.03;;;0.70;99.90;;;;;;5054163;28;20060;-80
2020/12/04 15:43:07;;;;;;;126.50;45.35;;;0.70;99.90;;;;;;5055444;28;20087;-82
2020/12/04 15:45:34;;;;;;;110.80;41.60;;;0.70;99.90;;;;;;5037466;28;20473;-81
2020/12/04 15:48:00;;;;;;;119.00;43.22;;;0.70;99.90;;;;;;5039976;28;20379;-81
2020/12/04 15:50:27;;;;;;;117.97;42.58;;;0.70;99.90;;;;;;5034547;28;20022;-81
2020/12/04 15:53:03;;;;;;;103.43;39.83;;;0.70;99.90;;;;;;5035460;28;20033;-80
2020/12/04 15:55:29;;;;;;;103.43;38.80;;;0.70;99.90;;;;;;5016180;28;20107;-81
2020/12/04 15:57:55;;;;;;;110.70;41.05;;;0.60;99.90;;;;;;5016802;28;20021;-81
2020/12/04 16:00:21;;;;;;;106.13;38.35;;;0.60;99.90;;;;;;5016324;28;20036;-82
2020/12/04 16:02:47;;;;;;;91.55;36.15;;;0.50;99.90;;;;;;5034425;28;20052;-81
2020/12/04 16:05:13;;;;;;;83.35;29.90;;;0.40;99.90;;;;;;5016545;28;20029;-81
2020/12/04 16:07:39;;;;;;;92.05;38.45;;;0.40;99.90;;;;;;5034342;28;20459;-81
2020/12/04 16:10:05;;;;;;;92.70;34.78;;;0.40;99.90;;;;;;5034106;28;20032;-81
2020/12/04 16:12:31;;;;;;;79.78;32.95;;;0.40;99.90;;;;;;5033873;28;20057;-82
2020/12/04 16:14:57;;;;;;;83.18;30.10;;;0.40;99.90;;;;;;5034004;28;20052;-81
2020/12/04 16:17:22;;;;;;;78.15;31.48;;;0.40;99.90;;;;;;5030396;28;20402;-82
2020/12/04 16:19:48;;;;;;;87.20;35.15;;;0.40;99.90;;;;;;5053999;28;20025;-81
2020/12/04 16:22:14;;;;;;;93.10;37.33;;;0.40;99.90;;;;;;5053917;28;20039;-83
2020/12/04 16:24:42;;;;;;;86.18;34.97;;;0.40;99.90;;;;;;5053640;28;20120;-81
2020/12/04 16:27:07;;;;;;;93.75;36.35;;;0.40;99.90;;;;;;5034808;28;20032;-81
2020/12/04 16:29:33;;;;;;;95.13;36.03;;;0.50;99.90;;;;;;5052823;28;20017;-81
2020/12/04 16:31:59;;;;;;;94.75;35.25;;;0.50;99.90;;;;;;5034824;28;20387;-81
2020/12/04 16:34:24;;;;;;;93.15;36.30;;;0.50;99.90;;;;;;5052895;28;20105;-81
2020/12/04 16:36:50;;;;;;;87.20;35.58;;;0.60;99.90;;;;;;5053246;28;20028;-81
2020/12/04 16:39:16;;;;;;;97.22;38.03;;;0.60;99.90;;;;;;5053588;28;20104;-81
2020/12/04 16:41:44;;;;;;;96.90;38.50;;;0.60;99.90;;;;;;5052842;28;20454;-84
2020/12/04 16:44:11;;;;;;;83.82;32.13;;;0.60;99.90;;;;;;5053031;28;20039;-81
2020/12/04 16:46:38;;;;;;;99.90;38.83;;;0.60;99.90;;;;;;5035735;28;20021;-82
2020/12/04 16:49:05;;;;;;;83.93;34.88;;;0.60;99.90;;;;;;5053253;28;20064;-83
2020/12/04 16:51:31;;;;;;;86.38;34.25;;;0.60;99.90;;;;;;5052900;28;20017;-83
2020/12/04 16:53:57;;;;;;;86.15;34.05;;;0.60;99.90;;;;;;5032887;28;20030;-81
2020/12/04 16:56:25;;;;;;;85.45;34.08;;;0.60;99.90;;;;;;5033142;28;20056;-81
2020/12/04 16:58:50;;;;;;;81.80;33.90;;;0.60;99.90;;;;;;5033239;28;20033;-81
2020/12/04 17:01:16;;;;;;;77.95;31.35;;;0.60;99.90;;;;;;5033382;28;20021;-81
2020/12/04 17:03:42;;;;;;;76.72;32.58;;;0.60;99.90;;;;;;5033653;28;20025;-81
2020/12/04 17:06:08;;;;;;;80.25;34.22;;;0.60;99.90;;;;;;5035690;28;20131;-82
2020/12/04 17:08:34;;;;;;;82.05;31.60;;;0.70;99.90;;;;;;5033352;28;20079;-81
2020/12/04 17:10:59;;;;;;;86.40;34.65;;;0.70;99.90;;;;;;5015703;28;20100;-82
2020/12/04 17:13:29;;;;;;;78.40;31.83;;;0.70;99.90;;;;;;5033535;28;20025;-82
2020/12/04 17:15:54;;;;;;;76.85;31.38;;;0.70;99.90;;;;;;5033385;28;20029;-82
2020/12/04 17:18:20;;;;;;;77.72;30.20;;;0.70;99.90;;;;;;5033365;28;20487;-82
2020/12/04 17:20:46;;;;;;;80.00;31.05;;;0.70;99.90;;;;;;5032750;28;20036;-82
2020/12/04 17:23:12;;;;;;;76.50;31.80;;;0.70;99.90;;;;;;5032033;28;20103;-81
2020/12/04 17:25:38;;;;;;;75.25;31.27;;;0.70;99.90;;;;;;5023776;28;20025;-82
2020/12/04 17:28:04;;;;;;;82.32;33.90;;;0.80;99.90;;;;;;5034718;28;20076;-81
2020/12/04 17:30:30;;;;;;;73.00;30.75;;;0.80;99.90;;;;;;5052325;28;20371;-81
2020/12/04 17:32:57;;;;;;;73.68;31.58;;;0.80;99.90;;;;;;5052158;28;20032;-82
2020/12/04 17:35:22;;;;;;;72.63;30.15;;;0.80;99.90;;;;;;5051816;28;20483;-81
2020/12/04 17:37:48;;;;;;;74.28;29.85;;;0.80;99.90;;;;;;5052504;28;20025;-81
2020/12/04 17:40:14;;;;;;;75.05;31.48;;;0.90;99.90;;;;;;5052848;28;20455;-80
2020/12/04 17:42:42;;;;;;;78.80;31.02;;;0.80;99.90;;;;;;5052872;28;20128;-81
2020/12/04 17:45:13;;;;;;;78.78;32.42;;;0.90;99.90;;;;;;5035140;28;20762;-82
2020/12/04 17:47:38;;;;;;;72.15;30.55;;;0.90;99.90;;;;;;5052890;28;20506;-81
2020/12/04 17:50:08;;;;;;;79.15;32.28;;;0.90;99.90;;;;;;5034872;28;20052;-82
2020/12/04 17:52:34;;;;;;;73.93;30.35;;;0.90;99.90;;;;;;5052695;28;20021;-82
2020/12/04 17:55:01;;;;;;;79.80;32.58;;;0.90;99.90;;;;;;5034919;28;20025;-82
2020/12/04 17:57:26;;;;;;;77.45;33.20;;;0.80;99.90;;;;;;5052613;28;20033;-82
2020/12/04 17:59:52;;;;;;;81.03;33.45;;;0.90;99.90;;;;;;5053230;28;20083;-82
2020/12/04 18:02:18;;;;;;;86.05;34.65;;;0.90;99.90;;;;;;5052522;28;20491;-81
2020/12/04 18:04:44;;;;;;;87.20;36.35;;;0.90;99.90;;;;;;5047937;28;20042;-82
2020/12/04 18:07:10;;;;;;;81.85;34.60;;;0.90;99.90;;;;;;5033054;28;20065;-82
2020/12/04 18:09:35;;;;;;;85.28;35.55;;;0.90;99.90;;;;;;5032319;28;20030;-82
2020/12/04 18:12:08;;;;;;;90.40;38.17;;;0.90;99.90;;;;;;5032773;28;20067;-81
2020/12/04 18:14:34;;;;;;;85.38;36.33;;;1.00;99.90;;;;;;5047989;28;20048;-82
2020/12/04 18:17:03;;;;;;;86.10;35.58;;;1.00;99.90;;;;;;5033258;28;20067;-83
2020/12/04 18:19:29;;;;;;;89.15;37.40;;;1.00;99.90;;;;;;5051858;28;20483;-82
2020/12/04 18:21:56;;;;;;;90.03;36.03;;;1.00;99.90;;;;;;5052225;28;20029;-81
2020/12/04 18:24:22;;;;;;;86.70;38.22;;;1.10;99.90;;;;;;5051740;28;20128;-81
2020/12/04 18:26:56;;;;;;;89.97;38.22;;;1.10;99.90;;;;;;5052264;28;20117;-79
2020/12/04 18:29:22;;;;;;;94.95;37.70;;;1.10;99.90;;;;;;5052211;28;20033;-78
2020/12/04 18:31:51;;;;;;;93.50;38.45;;;1.10;99.90;;;;;;5052380;28;20025;-79
2020/12/04 18:34:18;;;;;;;97.00;40.45;;;1.10;99.90;;;;;;5052573;28;20494;-78
2020/12/04 18:36:50;;;;;;;87.93;37.25;;;1.10;99.90;;;;;;5033879;28;20028;-78
2020/12/04 18:39:18;;;;;;;96.97;36.78;;;1.10;99.90;;;;;;5033940;28;20117;-78
2020/12/04 18:41:44;;;;;;;95.78;40.63;;;1.10;99.90;;;;;;5052064;28;20100;-78
2020/12/04 18:44:10;;;;;;;101.50;40.80;;;1.20;99.90;;;;;;5052384;28;20049;-77
2020/12/04 18:46:37;;;;;;;90.68;41.90;;;1.20;99.90;;;;;;5034377;28;20108;-78
2020/12/04 18:49:03;;;;;;;106.68;42.35;;;1.20;99.90;;;;;;5034156;28;20774;-77
2020/12/04 18:51:29;;;;;;;105.32;44.25;;;1.20;99.90;;;;;;5052225;28;20021;-79
2020/12/04 18:53:55;;;;;;;106.97;42.47;;;1.10;99.90;;;;;;5052189;28;20439;-77
2020/12/04 18:56:21;;;;;;;115.90;46.30;;;1.10;99.90;;;;;;5052131;28;20040;-78
2020/12/04 18:58:48;;;;;;;115.35;44.70;;;1.10;99.90;;;;;;5052365;28;20032;-77
2020/12/04 19:01:14;;;;;;;109.53;46.47;;;1.10;99.90;;;;;;5052391;28;20036;-77
2020/12/04 19:03:43;;;;;;;114.68;44.30;;;1.10;99.90;;;;;;5051932;28;20032;-78
2020/12/04 19:06:10;;;;;;;113.40;46.97;;;1.10;99.90;;;;;;5034473;28;20493;-78
2020/12/04 19:08:36;;;;;;;113.43;47.10;;;1.10;99.90;;;;;;5052240;28;20017;-78
2020/12/04 19:11:07;;;;;;;106.82;42.60;;;1.10;99.90;;;;;;5035034;28;20045;-80
2020/12/04 19:13:33;;;;;;;106.43;41.85;;;1.10;99.90;;;;;;5052273;28;20044;-79
2020/12/04 19:15:59;;;;;;;110.15;45.42;;;1.00;99.90;;;;;;5052169;28;20048;-78
2020/12/04 19:18:25;;;;;;;102.30;45.10;;;1.10;99.90;;;;;;5034133;28;20025;-78
2020/12/04 19:20:51;;;;;;;98.45;41.83;;;1.10;99.90;;;;;;5051835;28;20094;-78
2020/12/04 19:23:17;;;;;;;110.25;41.45;;;1.10;99.90;;;;;;5051849;28;20049;-79
2020/12/04 19:25:42;;;;;;;102.50;42.05;;;1.10;99.90;;;;;;5033738;28;20116;-78
2020/12/04 19:28:08;;;;;;;101.93;39.45;;;1.20;99.90;;;;;;5051858;28;20376;-78
2020/12/04 19:30:34;;;;;;;113.93;46.28;;;1.20;99.90;;;;;;5051749;28;20021;-79
2020/12/04 19:33:00;;;;;;;112.63;45.63;;;1.20;99.90;;;;;;5033561;28;20035;-79
2020/12/04 19:35:27;;;;;;;120.97;46.13;;;1.20;99.90;;;;;;5051641;28;20032;-78
2020/12/04 19:37:52;;;;;;;103.50;42.88;;;1.20;99.90;;;;;;5051491;28;20037;-79
2020/12/04 19:40:18;;;;;;;102.45;42.30;;;1.20;99.90;;;;;;5051221;28;20151;-78
2020/12/04 19:42:45;;;;;;;108.45;43.20;;;1.10;99.90;;;;;;5050976;28;20360;-78
2020/12/04 19:45:11;;;;;;;102.63;40.05;;;1.10;99.90;;;;;;5050304;28;20025;-78
2020/12/04 19:47:44;;;;;;;95.47;36.05;;;1.10;99.90;;;;;;5050024;28;20036;-78
2020/12/04 19:50:12;;;;;;;102.88;41.25;;;1.00;99.90;;;;;;5052488;28;20064;-79
2020/12/04 19:52:38;;;;;;;96.93;40.25;;;1.00;99.90;;;;;;5053391;28;20037;-78
2020/12/04 19:55:05;;;;;;;104.60;41.78;;;1.00;99.90;;;;;;5036205;28;20040;-78
2020/12/04 19:57:34;;;;;;;97.32;40.53;;;1.00;99.90;;;;;;5054311;28;20051;-78
2020/12/04 20:00:01;;;;;;;93.45;38.08;;;0.90;99.90;;;;;;5054717;28;20039;-78
2020/12/04 20:02:27;;;;;;;107.15;42.25;;;0.90;99.90;;;;;;5035943;28;20427;-77
2020/12/04 20:04:53;;;;;;;111.47;42.50;;;0.90;99.90;;;;;;5053899;28;20029;-76
2020/12/04 20:07:19;;;;;;;103.93;39.70;;;0.80;99.90;;;;;;5054071;28;20086;-77
2020/12/04 20:09:47;;;;;;;106.22;42.45;;;0.80;99.90;;;;;;5053073;28;20085;-74
2020/12/04 20:12:13;;;;;;;99.05;41.35;;;0.70;99.90;;;;;;5053089;28;20387;-76
2020/12/04 20:14:39;;;;;;;99.93;41.38;;;0.70;99.90;;;;;;5052935;28;20044;-75
2020/12/04 20:17:05;;;;;;;102.75;39.33;;;0.70;99.90;;;;;;5053034;28;20021;-75
2020/12/04 20:19:31;;;;;;;107.60;40.53;;;0.70;99.90;;;;;;5053651;28;20025;-75
2020/12/04 20:21:58;;;;;;;98.03;32.00;;;0.70;99.90;;;;;;5053303;28;20474;-74
2020/12/04 20:24:25;;;;;;;104.53;42.22;;;0.70;99.90;;;;;;5052691;28;20080;-75
2020/12/04 20:26:51;;;;;;;110.82;42.45;;;0.60;99.90;;;;;;5053519;28;20105;-76
2020/12/04 20:29:16;;;;;;;121.90;44.95;;;0.60;99.90;;;;;;5053374;28;20056;-75
2020/12/04 20:31:43;;;;;;;114.30;43.15;;;0.60;99.90;;;;;;5053223;28;20110;-75
2020/12/04 20:34:09;;;;;;;111.75;42.80;;;0.60;99.90;;;;;;5053382;28;20025;-75
2020/12/04 20:36:35;;;;;;;100.22;39.13;;;0.60;99.90;;;;;;5035522;28;20036;-76
2020/12/04 20:39:00;;;;;;;101.10;39.88;;;0.60;99.90;;;;;;5035436;28;20037;-77
2020/12/04 20:41:26;;;;;;;100.65;40.20;;;0.50;99.90;;;;;;5053518;28;20028;-75
2020/12/04 20:43:52;;;;;;;92.10;37.85;;;0.50;99.90;;;;;;5053388;28;20109;-76
2020/12/04 20:46:18;;;;;;;77.25;31.48;;;0.50;99.90;;;;;;5053358;28;20025;-76
2020/12/04 20:48:43;;;;;;;72.22;29.73;;;0.40;99.90;;;;;;5053515;28;20028;-76
2020/12/04 20:51:10;;;;;;;85.00;35.42;;;0.50;99.90;;;;;;5053572;28;20033;-76
2020/12/04 20:53:37;;;;;;;89.20;36.30;;;0.40;99.90;;;;;;5052044;28;20524;-76
2020/12/04 20:56:06;;;;;;;93.72;36.90;;;0.40;99.90;;;;;;5053292;28;20056;-76
2020/12/04 20:58:32;;;;;;;83.03;35.45;;;0.40;99.90;;;;;;5053149;28;20521;-75
2020/12/04 21:00:57;;;;;;;89.00;38.03;;;0.40;99.90;;;;;;5051795;28;20033;-77
2020/12/04 21:03:23;;;;;;;92.78;38.88;;;0.40;99.90;;;;;;5052450;28;20378;-77
2020/12/04 21:05:49;;;;;;;109.47;42.17;;;0.40;99.90;;;;;;5052790;28;20025;-76
2020/12/04 21:08:15;;;;;;;99.55;40.90;;;0.40;99.90;;;;;;5052809;28;20064;-76
2020/12/04 21:10:40;;;;;;;90.65;36.13;;;0.40;99.90;;;;;;5035035;28;20128;-76
2020/12/04 21:13:06;;;;;;;91.22;36.42;;;0.40;99.90;;;;;;5052841;28;20033;-78
2020/12/04 21:15:32;;;;;;;93.47;36.88;;;0.40;99.90;;;;;;5053089;28;20033;-76
2020/12/04 21:17:57;;;;;;;81.00;32.03;;;0.40;99.90;;;;;;5052745;28;20029;-76
2020/12/04 21:20:23;;;;;;;82.07;34.28;;;0.40;99.90;;;;;;5053120;28;20452;-75
2020/12/04 21:22:49;;;;;;;82.38;34.65;;;0.40;99.90;;;;;;5052758;28;20041;-76
2020/12/04 21:25:16;;;;;;;74.03;32.88;;;0.40;99.90;;;;;;5052745;28;20194;-76
2020/12/04 21:27:42;;;;;;;74.60;32.63;;;0.40;99.90;;;;;;5052918;28;20512;-76
2020/12/04 21:30:08;;;;;;;79.32;35.03;;;0.40;99.90;;;;;;5052541;28;20071;-76
2020/12/04 21:32:33;;;;;;;76.35;33.90;;;0.40;99.90;;;;;;5051731;28;20063;-75
2020/12/04 21:34:59;;;;;;;75.40;31.88;;;0.50;99.90;;;;;;5052079;28;20033;-76
2020/12/04 21:37:25;;;;;;;74.95;30.35;;;0.40;99.90;;;;;;5051552;28;20499;-76
2020/12/04 21:39:50;;;;;;;68.55;30.38;;;0.40;99.90;;;;;;5051831;28;20474;-75
2020/12/04 21:42:18;;;;;;;72.75;30.45;;;0.40;99.90;;;;;;5051505;28;20029;-76
2020/12/04 21:44:44;;;;;;;74.65;31.23;;;0.30;99.90;;;;;;5051487;28;20106;-75
2020/12/04 21:47:10;;;;;;;75.30;30.48;;;0.30;99.90;;;;;;5052203;28;20124;-76
2020/12/04 21:49:36;;;;;;;77.07;32.33;;;0.30;99.90;;;;;;5052344;28;20116;-76
2020/12/04 21:52:06;;;;;;;77.93;31.80;;;0.20;99.90;;;;;;5034127;28;20029;-75
2020/12/04 21:54:32;;;;;;;77.95;32.63;;;0.20;99.90;;;;;;5051642;28;20025;-75
2020/12/04 21:56:59;;;;;;;70.82;30.73;;;0.20;99.90;;;;;;5051690;28;20032;-76
2020/12/04 21:59:25;;;;;;;75.97;32.83;;;0.20;99.90;;;;;;5051531;28;20033;-76
2020/12/04 22:01:51;;;;;;;82.68;35.28;;;0.20;99.90;;;;;;5051417;28;20025;-74
2020/12/04 22:04:16;;;;;;;68.55;30.52;;;0.20;99.90;;;;;;5051266;28;20091;-76
2020/12/04 22:06:42;;;;;;;80.75;33.20;;;0.20;99.90;;;;;;5051733;28;20033;-75
2020/12/04 22:09:08;;;;;;;72.72;31.52;;;0.30;99.90;;;;;;5051662;28;20053;-75
2020/12/04 22:11:34;;;;;;;68.72;28.00;;;0.20;99.90;;;;;;5051734;28;20029;-79
2020/12/04 22:14:00;;;;;;;71.05;30.48;;;0.20;99.90;;;;;;5052577;28;20037;-78
2020/12/04 22:16:26;;;;;;;74.72;29.10;;;0.30;99.90;;;;;;5034380;28;20029;-78
2020/12/04 22:18:53;;;;;;;73.72;30.70;;;0.30;99.90;;;;;;5052502;28;20032;-79
2020/12/04 22:21:19;;;;;;;77.47;33.38;;;0.30;99.90;;;;;;5052565;28;20048;-79
2020/12/04 22:23:46;;;;;;;71.78;29.92;;;0.30;99.90;;;;;;5052328;28;20095;-79
2020/12/04 22:26:23;;;;;;;78.60;34.42;;;0.30;99.90;;;;;;5052603;28;20033;-79
2020/12/04 22:28:50;;;;;;;85.10;34.30;;;0.20;99.90;;;;;;5052564;28;20025;-78
2020/12/04 22:31:23;;;;;;;88.05;36.70;;;0.20;99.90;;;;;;5052509;28;20029;-78
2020/12/04 22:33:50;;;;;;;86.95;35.05;;;0.20;99.90;;;;;;5052082;28;20112;-78
2020/12/04 22:36:20;;;;;;;80.93;33.47;;;0.30;99.90;;;;;;5052363;28;20044;-77
2020/12/04 22:38:47;;;;;;;82.00;35.67;;;0.20;99.90;;;;;;5052175;28;20032;-78
2020/12/04 22:41:13;;;;;;;76.57;33.40;;;0.30;99.90;;;;;;5034161;28;20549;-78
2020/12/04 22:43:38;;;;;;;84.68;32.10;;;0.20;99.90;;;;;;5052157;28;20117;-78
2020/12/04 22:46:04;;;;;;;78.57;31.40;;;0.30;99.90;;;;;;5052569;28;20028;-80
2020/12/04 22:48:30;;;;;;;82.65;36.92;;;0.30;99.90;;;;;;5052638;28;20051;-77
2020/12/04 22:50:56;;;;;;;85.53;34.85;;;0.20;99.90;;;;;;5052196;28;20036;-78
2020/12/04 22:53:22;;;;;;;70.53;28.92;;;0.20;99.90;;;;;;5034050;28;20814;-77
2020/12/04 22:55:48;;;;;;;82.97;34.80;;;0.30;99.90;;;;;;5052707;28;20028;-77
2020/12/04 22:58:14;;;;;;;84.43;33.95;;;0.30;99.90;;;;;;5052510;28;20025;-76
2020/12/04 23:00:40;;;;;;;79.20;33.97;;;0.30;99.90;;;;;;5033439;28;20090;-75
2020/12/04 23:03:05;;;;;;;81.63;33.13;;;0.30;99.90;;;;;;5039430;28;20033;-76
2020/12/04 23:05:31;;;;;;;85.20;34.47;;;0.20;99.90;;;;;;5041311;28;20027;-76
2020/12/04 23:07:57;;;;;;;73.57;31.38;;;0.20;99.90;;;;;;5042160;28;20032;-75
2020/12/04 23:10:23;;;;;;;88.85;35.60;;;0.20;99.90;;;;;;5039720;28;20022;-76
2020/12/04 23:12:49;;;;;;;85.85;35.78;;;0.20;99.90;;;;;;5039863;28;20030;-76
2020/12/04 23:15:14;;;;;;;84.93;35.30;;;0.20;99.90;;;;;;5041379;28;20029;-75
2020/12/04 23:17:40;;;;;;;96.45;38.67;;;0.20;99.90;;;;;;5031749;28;20033;-75
2020/12/04 23:20:06;;;;;;;98.05;39.35;;;0.20;99.90;;;;;;5042312;28;20029;-75
2020/12/04 23:22:32;;;;;;;101.25;39.15;;;0.20;99.90;;;;;;5038908;28;20037;-75
2020/12/04 23:24:57;;;;;;;102.93;38.28;;;0.20;99.90;;;;;;5042605;28;20037;-76
2020/12/04 23:27:23;;;;;;;107.72;39.67;;;0.20;99.90;;;;;;5044816;28;20466;-75
2020/12/04 23:29:49;;;;;;;106.22;40.78;;;0.20;99.90;;;;;;5051772;28;20030;-75
2020/12/04 23:32:15;;;;;;;101.57;37.75;;;0.20;99.90;;;;;;5056360;28;20100;-76
2020/12/04 23:34:40;;;;;;;105.55;38.47;;;0.20;99.90;;;;;;5056290;28;20025;-76
2020/12/04 23:37:06;;;;;;;103.45;37.42;;;0.20;99.90;;;;;;5038069;28;20795;-76
2020/12/04 23:39:32;;;;;;;98.90;38.50;;;0.20;99.90;;;;;;5056108;28;20033;-76
2020/12/04 23:41:57;;;;;;;103.18;38.55;;;0.10;99.90;;;;;;5055849;28;20032;-76
2020/12/04 23:44:23;;;;;;;103.72;38.80;;;0.10;99.90;;;;;;5056106;28;20060;-76
2020/12/04 23:46:49;;;;;;;103.57;39.60;;;0.20;99.90;;;;;;5056319;28;20082;-76
2020/12/04 23:49:15;;;;;;;97.65;37.10;;;0.10;99.90;;;;;;5056083;28;20097;-76
2020/12/04 23:51:41;;;;;;;108.35;41.47;;;0.20;99.90;;;;;;5055955;28;20104;-77
2020/12/04 23:54:07;;;;;;;101.85;40.85;;;0.20;99.90;;;;;;5055715;28;20033;-76
2020/12/04 23:56:34;;;;;;;119.28;40.72;;;0.20;99.90;;;;;;5055303;28;20052;-76
2020/12/04 23:58:59;;;;;;;124.88;43.40;;;0.20;99.90;;;;;;5055316;28;20467;-76
